sensor_id;sensor_type;location;lat;lon;timestamp;pressure;altitude;pressure_sealevel;temperature;humidity
75146;BME280;63641;46.526;24.612;2023-01-04T00:01:04;98307.09;;;5.63;77.32
75146;BME280;63641;46.526;24.612;2023-01-04T00:03:32;98295.75;;;5.61;77.40
75146;BME280;63641;46.526;24.612;2023-01-04T00:06:02;98311.63;;;5.62;77.21
75146;BME280;63641;46.526;24.612;2023-01-04T00:08:29;98308.13;;;5.62;77.30
75146;BME280;63641;46.526;24.612;2023-01-04T00:11:12;98306.88;;;5.64;77.03
75146;BME280;63641;46.526;24.612;2023-01-04T00:13:40;98296.59;;;5.61;77.25
75146;BME280;63641;46.526;24.612;2023-01-04T00:16:11;98299.63;;;5.65;77.11
75146;BME280;63641;46.526;24.612;2023-01-04T00:18:38;98309.31;;;5.66;77.04
75146;BME280;63641;46.526;24.612;2023-01-04T00:21:12;98313.63;;;5.67;77.00
75146;BME280;63641;46.526;24.612;2023-01-04T00:23:41;98310.94;;;5.67;77.21
75146;BME280;63641;46.526;24.612;2023-01-04T00:26:13;98309.31;;;5.66;77.19
75146;BME280;63641;46.526;24.612;2023-01-04T00:28:41;98311.81;;;5.67;77.14
75146;BME280;63641;46.526;24.612;2023-01-04T00:31:14;98311.56;;;5.69;77.02
75146;BME280;63641;46.526;24.612;2023-01-04T00:33:41;98317.75;;;5.69;77.05
75146;BME280;63641;46.526;24.612;2023-01-04T00:36:11;98312.16;;;5.71;77.14
75146;BME280;63641;46.526;24.612;2023-01-04T00:38:39;98315.06;;;5.69;77.00
75146;BME280;63641;46.526;24.612;2023-01-04T00:41:07;98314.84;;;5.71;77.16
75146;BME280;63641;46.526;24.612;2023-01-04T00:43:54;98310.31;;;5.71;77.01
75146;BME280;63641;46.526;24.612;2023-01-04T00:46:21;98309.47;;;5.71;77.02
75146;BME280;63641;46.526;24.612;2023-01-04T00:48:48;98311.31;;;5.70;77.02
75146;BME280;63641;46.526;24.612;2023-01-04T00:51:17;98313.44;;;5.68;77.13
75146;BME280;63641;46.526;24.612;2023-01-04T00:53:43;98322.91;;;5.71;76.97
75146;BME280;63641;46.526;24.612;2023-01-04T00:56:10;98326.63;;;5.70;77.07
75146;BME280;63641;46.526;24.612;2023-01-04T00:58:37;98313.63;;;5.67;77.09
75146;BME280;63641;46.526;24.612;2023-01-04T01:01:05;98312.97;;;5.71;77.08
75146;BME280;63641;46.526;24.612;2023-01-04T01:03:32;98317.53;;;5.71;77.05
75146;BME280;63641;46.526;24.612;2023-01-04T01:06:05;98322.66;;;5.72;77.22
75146;BME280;63641;46.526;24.612;2023-01-04T01:08:33;98324.66;;;5.77;77.04
75146;BME280;63641;46.526;24.612;2023-01-04T01:11:05;98322.81;;;5.77;77.06
75146;BME280;63641;46.526;24.612;2023-01-04T01:13:32;98319.31;;;5.77;76.83
75146;BME280;63641;46.526;24.612;2023-01-04T01:16:07;98325.28;;;5.79;77.00
75146;BME280;63641;46.526;24.612;2023-01-04T01:18:36;98325.28;;;5.79;76.91
75146;BME280;63641;46.526;24.612;2023-01-04T01:21:08;98326.91;;;5.80;77.03
75146;BME280;63641;46.526;24.612;2023-01-04T01:23:35;98322.59;;;5.79;76.89
75146;BME280;63641;46.526;24.612;2023-01-04T01:26:04;98316.16;;;5.80;77.04
75146;BME280;63641;46.526;24.612;2023-01-04T01:28:34;98314.75;;;5.77;77.09
75146;BME280;63641;46.526;24.612;2023-01-04T01:31:10;98318.50;;;5.76;77.00
75146;BME280;63641;46.526;24.612;2023-01-04T01:33:38;98310.44;;;5.76;76.95
75146;BME280;63641;46.526;24.612;2023-01-04T01:36:06;98312.66;;;5.79;77.13
75146;BME280;63641;46.526;24.612;2023-01-04T01:38:35;98309.97;;;5.79;77.08
75146;BME280;63641;46.526;24.612;2023-01-04T01:41:02;98302.50;;;5.81;77.10
75146;BME280;63641;46.526;24.612;2023-01-04T01:43:52;98303.56;;;5.80;77.02
75146;BME280;63641;46.526;24.612;2023-01-04T01:48:59;98298.19;;;5.80;76.96
75146;BME280;63641;46.526;24.612;2023-01-04T01:51:29;98297.13;;;5.81;77.17
75146;BME280;63641;46.526;24.612;2023-01-04T01:54:13;98296.09;;;5.82;77.09
75146;BME280;63641;46.526;24.612;2023-01-04T01:56:44;98296.31;;;5.81;76.97
75146;BME280;63641;46.526;24.612;2023-01-04T01:59:13;98295.28;;;5.82;77.08
75146;BME280;63641;46.526;24.612;2023-01-04T02:01:41;98301.47;;;5.82;77.03
75146;BME280;63641;46.526;24.612;2023-01-04T02:04:08;98297.50;;;5.85;77.16
75146;BME280;63641;46.526;24.612;2023-01-04T02:06:39;98293.19;;;5.84;77.32
75146;BME280;63641;46.526;24.612;2023-01-04T02:09:08;98300.44;;;5.84;77.16
75146;BME280;63641;46.526;24.612;2023-01-04T02:11:35;98285.94;;;5.85;77.16
75146;BME280;63641;46.526;24.612;2023-01-04T02:14:02;98296.91;;;5.83;77.24
75146;BME280;63641;46.526;24.612;2023-01-04T02:46:47;98296.69;;;5.85;77.43
75146;BME280;63641;46.526;24.612;2023-01-04T02:49:14;98295.88;;;5.84;77.47
75146;BME280;63641;46.526;24.612;2023-01-04T02:52:00;98304.53;;;5.86;77.47
75146;BME280;63641;46.526;24.612;2023-01-04T02:54:31;98302.88;;;5.85;77.58
75146;BME280;63641;46.526;24.612;2023-01-04T03:02:22;98301.41;;;5.89;77.51
75146;BME280;63641;46.526;24.612;2023-01-04T03:08:27;98291.22;;;5.91;77.49
75146;BME280;63641;46.526;24.612;2023-01-04T03:11:12;98295.56;;;5.92;77.42
75146;BME280;63641;46.526;24.612;2023-01-04T03:14:14;98301.56;;;5.94;77.50
75146;BME280;63641;46.526;24.612;2023-01-04T03:17:00;98298.88;;;5.94;77.49
75146;BME280;63641;46.526;24.612;2023-01-04T03:19:30;98304.00;;;5.96;77.48
75146;BME280;63641;46.526;24.612;2023-01-04T03:22:18;98305.88;;;5.95;77.42
75146;BME280;63641;46.526;24.612;2023-01-04T03:25:07;98301.56;;;5.94;77.24
75146;BME280;63641;46.526;24.612;2023-01-04T03:27:54;98299.28;;;5.91;77.62
75146;BME280;63641;46.526;24.612;2023-01-04T03:30:54;98306.53;;;5.91;77.78
75146;BME280;63641;46.526;24.612;2023-01-04T03:33:41;98307.59;;;5.90;77.60
75146;BME280;63641;46.526;24.612;2023-01-04T03:36:40;98308.41;;;5.90;77.26
75146;BME280;63641;46.526;24.612;2023-01-04T03:39:58;98311.53;;;5.87;77.57
75146;BME280;63641;46.526;24.612;2023-01-04T03:42:36;98302.28;;;5.83;77.65
75146;BME280;63641;46.526;24.612;2023-01-04T03:45:31;98308.94;;;5.80;77.73
75146;BME280;63641;46.526;24.612;2023-01-04T03:48:28;98305.88;;;5.77;77.82
75146;BME280;63641;46.526;24.612;2023-01-04T03:51:08;98298.88;;;5.76;77.85
75146;BME280;63641;46.526;24.612;2023-01-04T03:53:50;98304.25;;;5.76;77.65
75146;BME280;63641;46.526;24.612;2023-01-04T03:56:21;98302.13;;;5.78;77.86
75146;BME280;63641;46.526;24.612;2023-01-04T03:58:49;98305.44;;;5.80;77.76
75146;BME280;63641;46.526;24.612;2023-01-04T04:01:18;98304.16;;;5.82;77.90
75146;BME280;63641;46.526;24.612;2023-01-04T04:03:46;98313.25;;;5.81;77.83
75146;BME280;63641;46.526;24.612;2023-01-04T04:06:32;98311.16;;;5.84;78.04
75146;BME280;63641;46.526;24.612;2023-01-04T04:09:17;98316.09;;;5.87;77.88
75146;BME280;63641;46.526;24.612;2023-01-04T04:11:44;98317.16;;;5.86;77.95
75146;BME280;63641;46.526;24.612;2023-01-04T04:14:11;98318.53;;;5.88;77.97
75146;BME280;63641;46.526;24.612;2023-01-04T04:16:38;98317.50;;;5.89;77.96
75146;BME280;63641;46.526;24.612;2023-01-04T04:19:04;98322.66;;;5.91;77.99
75146;BME280;63641;46.526;24.612;2023-01-04T04:21:34;98326.97;;;5.92;77.96
75146;BME280;63641;46.526;24.612;2023-01-04T04:24:01;98311.91;;;5.91;77.97
75146;BME280;63641;46.526;24.612;2023-01-04T04:26:28;98322.44;;;5.92;78.03
75146;BME280;63641;46.526;24.612;2023-01-04T04:28:55;98319.75;;;5.92;77.99
75146;BME280;63641;46.526;24.612;2023-01-04T04:31:21;98321.84;;;5.90;77.90
75146;BME280;63641;46.526;24.612;2023-01-04T04:33:49;98326.03;;;5.86;78.02
75146;BME280;63641;46.526;24.612;2023-01-04T04:36:15;98323.16;;;5.81;78.04
75146;BME280;63641;46.526;24.612;2023-01-04T04:38:42;98325.50;;;5.77;78.20
75146;BME280;63641;46.526;24.612;2023-01-04T04:41:10;98310.31;;;5.71;78.36
75146;BME280;63641;46.526;24.612;2023-01-04T04:43:56;98319.38;;;5.70;78.35
75146;BME280;63641;46.526;24.612;2023-01-04T04:46:23;98314.47;;;5.67;78.38
75146;BME280;63641;46.526;24.612;2023-01-04T04:48:50;98317.16;;;5.67;78.38
75146;BME280;63641;46.526;24.612;2023-01-04T04:51:17;98309.75;;;5.63;78.55
75146;BME280;63641;46.526;24.612;2023-01-04T04:53:44;98308.63;;;5.70;78.53
75146;BME280;63641;46.526;24.612;2023-01-04T04:56:11;98312.97;;;5.71;78.40
75146;BME280;63641;46.526;24.612;2023-01-04T04:58:37;98307.38;;;5.73;78.45
75146;BME280;63641;46.526;24.612;2023-01-04T05:01:05;98309.84;;;5.74;78.38
75146;BME280;63641;46.526;24.612;2023-01-04T05:03:32;98309.63;;;5.76;78.34
75146;BME280;63641;46.526;24.612;2023-01-04T05:05:59;98308.34;;;5.78;78.24
75146;BME280;63641;46.526;24.612;2023-01-04T05:08:27;98299.69;;;5.76;78.36
75146;BME280;63641;46.526;24.612;2023-01-04T05:10:53;98314.31;;;5.80;78.28
75146;BME280;63641;46.526;24.612;2023-01-04T05:13:20;98314.53;;;5.79;78.40
75146;BME280;63641;46.526;24.612;2023-01-04T05:15:49;98320.72;;;5.79;78.40
75146;BME280;63641;46.526;24.612;2023-01-04T05:18:18;98310.19;;;5.78;78.31
75146;BME280;63641;46.526;24.612;2023-01-04T05:20:46;98321.09;;;5.83;78.44
75146;BME280;63641;46.526;24.612;2023-01-04T05:23:15;98315.72;;;5.83;78.39
75146;BME280;63641;46.526;24.612;2023-01-04T05:25:42;98322.53;;;5.86;78.35
75146;BME280;63641;46.526;24.612;2023-01-04T05:28:10;98320.66;;;5.86;78.40
75146;BME280;63641;46.526;24.612;2023-01-04T05:30:37;98330.34;;;5.87;78.29
75146;BME280;63641;46.526;24.612;2023-01-04T05:33:17;98324.16;;;5.87;78.29
75146;BME280;63641;46.526;24.612;2023-01-04T05:35:44;98323.91;;;5.88;78.29
75146;BME280;63641;46.526;24.612;2023-01-04T05:38:11;98322.66;;;5.91;78.23
75146;BME280;63641;46.526;24.612;2023-01-04T05:40:38;98332.16;;;5.93;78.33
75146;BME280;63641;46.526;24.612;2023-01-04T05:43:05;98338.34;;;5.94;78.14
75146;BME280;63641;46.526;24.612;2023-01-04T05:45:32;98332.16;;;5.93;78.08
75146;BME280;63641;46.526;24.612;2023-01-04T05:47:59;98342.44;;;5.96;78.22
75146;BME280;63641;46.526;24.612;2023-01-04T05:50:26;98345.34;;;5.95;78.23
75146;BME280;63641;46.526;24.612;2023-01-04T05:52:52;98348.66;;;5.97;78.39
75146;BME280;63641;46.526;24.612;2023-01-04T05:55:19;98349.47;;;5.97;78.16
75146;BME280;63641;46.526;24.612;2023-01-04T05:57:46;98353.78;;;5.98;78.24
75146;BME280;63641;46.526;24.612;2023-01-04T06:00:13;98352.72;;;5.99;78.27
75146;BME280;63641;46.526;24.612;2023-01-04T06:02:41;98356.22;;;6.00;78.36
75146;BME280;63641;46.526;24.612;2023-01-04T06:05:09;98352.53;;;6.01;78.15
75146;BME280;63641;46.526;24.612;2023-01-04T06:07:37;98362.56;;;6.05;78.14
75146;BME280;63641;46.526;24.612;2023-01-04T06:10:07;98358.25;;;6.04;78.20
75146;BME280;63641;46.526;24.612;2023-01-04T06:12:34;98362.56;;;6.05;78.14
75146;BME280;63641;46.526;24.612;2023-01-04T06:15:01;98361.75;;;6.05;78.09
75146;BME280;63641;46.526;24.612;2023-01-04T06:17:27;98363.63;;;6.04;78.27
75146;BME280;63641;46.526;24.612;2023-01-04T06:19:55;98368.19;;;6.04;78.31
75146;BME280;63641;46.526;24.612;2023-01-04T06:22:21;98372.28;;;6.07;78.23
75146;BME280;63641;46.526;24.612;2023-01-04T06:24:48;98366.31;;;6.04;78.19
75146;BME280;63641;46.526;24.612;2023-01-04T06:27:15;98368.19;;;6.04;78.22
75146;BME280;63641;46.526;24.612;2023-01-04T06:29:42;98373.78;;;6.02;78.14
75146;BME280;63641;46.526;24.612;2023-01-04T06:32:09;98376.69;;;6.01;78.22
75146;BME280;63641;46.526;24.612;2023-01-04T06:34:36;98373.19;;;6.00;78.36
75146;BME280;63641;46.526;24.612;2023-01-04T06:37:03;98379.16;;;6.02;78.32
75146;BME280;63641;46.526;24.612;2023-01-04T06:39:31;98380.78;;;6.03;78.34
75146;BME280;63641;46.526;24.612;2023-01-04T06:41:58;98385.69;;;6.07;78.30
75146;BME280;63641;46.526;24.612;2023-01-04T06:44:32;98387.38;;;6.08;78.56
75146;BME280;63641;46.526;24.612;2023-01-04T06:46:58;98390.88;;;6.08;78.15
75146;BME280;63641;46.526;24.612;2023-01-04T06:49:25;98390.06;;;6.08;78.30
75146;BME280;63641;46.526;24.612;2023-01-04T06:51:52;98395.44;;;6.08;78.23
75146;BME280;63641;46.526;24.612;2023-01-04T06:54:19;98385.34;;;6.03;78.22
75146;BME280;63641;46.526;24.612;2023-01-04T06:56:45;98384.53;;;6.02;78.38
75146;BME280;63641;46.526;24.612;2023-01-04T06:59:12;98378.78;;;5.99;78.30
75146;BME280;63641;46.526;24.612;2023-01-04T07:01:39;98375.72;;;5.95;78.54
75146;BME280;63641;46.526;24.612;2023-01-04T07:04:06;98374.09;;;5.94;78.47
75146;BME280;63641;46.526;24.612;2023-01-04T07:06:33;98389.38;;;5.94;78.55
75146;BME280;63641;46.526;24.612;2023-01-04T07:08:59;98399.72;;;5.90;78.51
75146;BME280;63641;46.526;24.612;2023-01-04T07:11:26;98407.41;;;5.87;78.44
75146;BME280;63641;46.526;24.612;2023-01-04T07:13:53;98416.28;;;5.87;78.63
75146;BME280;63641;46.526;24.612;2023-01-04T07:16:20;98413.59;;;5.87;78.58
75146;BME280;63641;46.526;24.612;2023-01-04T07:18:47;98409.88;;;5.88;78.84
75146;BME280;63641;46.526;24.612;2023-01-04T07:21:13;98409.41;;;5.91;78.80
75146;BME280;63641;46.526;24.612;2023-01-04T07:23:40;98404.44;;;5.95;78.66
75146;BME280;63641;46.526;24.612;2023-01-04T07:26:07;98421.19;;;5.97;78.61
75146;BME280;63641;46.526;24.612;2023-01-04T07:28:34;98420.13;;;5.98;78.76
75146;BME280;63641;46.526;24.612;2023-01-04T07:31:19;98419.88;;;5.99;78.76
75146;BME280;63641;46.526;24.612;2023-01-04T07:33:49;98418.88;;;6.00;78.80
75146;BME280;63641;46.526;24.612;2023-01-04T07:36:16;98427.75;;;6.01;78.62
75146;BME280;63641;46.526;24.612;2023-01-04T07:38:44;98425.88;;;6.01;78.84
75146;BME280;63641;46.526;24.612;2023-01-04T07:41:11;98421.06;;;6.03;78.83
75146;BME280;63641;46.526;24.612;2023-01-04T07:43:37;98425.44;;;6.04;78.86
75146;BME280;63641;46.526;24.612;2023-01-04T07:46:04;98423.94;;;6.09;78.94
75146;BME280;63641;46.526;24.612;2023-01-04T07:48:31;98422.44;;;6.13;78.88
75146;BME280;63641;46.526;24.612;2023-01-04T07:50:58;98426.53;;;6.15;78.79
75146;BME280;63641;46.526;24.612;2023-01-04T07:53:25;98429.00;;;6.17;78.82
75146;BME280;63641;46.526;24.612;2023-01-04T07:55:55;98430.63;;;6.18;79.02
75146;BME280;63641;46.526;24.612;2023-01-04T07:58:23;98427.72;;;6.19;79.03
75146;BME280;63641;46.526;24.612;2023-01-04T08:00:50;98425.25;;;6.18;79.01
75146;BME280;63641;46.526;24.612;2023-01-04T08:03:17;98430.53;;;6.24;79.19
75146;BME280;63641;46.526;24.612;2023-01-04T08:05:43;98436.06;;;6.29;79.04
75146;BME280;63641;46.526;24.612;2023-01-04T08:08:10;98434.59;;;6.34;79.01
75146;BME280;63641;46.526;24.612;2023-01-04T08:10:37;98427.34;;;6.34;79.13
75146;BME280;63641;46.526;24.612;2023-01-04T08:13:04;98435.31;;;6.41;79.13
75146;BME280;63641;46.526;24.612;2023-01-04T08:15:31;98433.44;;;6.41;79.01
75146;BME280;63641;46.526;24.612;2023-01-04T08:17:57;98437.88;;;6.47;79.14
75146;BME280;63641;46.526;24.612;2023-01-04T08:20:24;98438.94;;;6.46;79.12
75146;BME280;63641;46.526;24.612;2023-01-04T08:22:51;98439.56;;;6.48;79.17
75146;BME280;63641;46.526;24.612;2023-01-04T08:25:18;98447.13;;;6.51;79.20
75146;BME280;63641;46.526;24.612;2023-01-04T08:27:44;98447.50;;;6.55;79.26
75146;BME280;63641;46.526;24.612;2023-01-04T08:30:11;98451.63;;;6.58;79.18
75146;BME280;63641;46.526;24.612;2023-01-04T08:32:38;98450.56;;;6.59;79.30
75146;BME280;63641;46.526;24.612;2023-01-04T08:35:06;98446.38;;;6.63;79.18
75146;BME280;63641;46.526;24.612;2023-01-04T08:37:33;98449.41;;;6.66;79.46
75146;BME280;63641;46.526;24.612;2023-01-04T08:40:01;98447.94;;;6.70;79.33
75146;BME280;63641;46.526;24.612;2023-01-04T08:42:28;98451.44;;;6.71;79.22
75146;BME280;63641;46.526;24.612;2023-01-04T08:44:57;98461.16;;;6.72;79.28
75146;BME280;63641;46.526;24.612;2023-01-04T08:47:28;98467.13;;;6.74;79.31
75146;BME280;63641;46.526;24.612;2023-01-04T08:49:55;98462.56;;;6.74;79.61
75146;BME280;63641;46.526;24.612;2023-01-04T08:52:22;98467.72;;;6.76;79.59
75146;BME280;63641;46.526;24.612;2023-01-04T08:54:49;98463.97;;;6.77;79.58
75146;BME280;63641;46.526;24.612;2023-01-04T08:57:17;98465.25;;;6.74;79.75
75146;BME280;63641;46.526;24.612;2023-01-04T08:59:44;98472.03;;;6.77;79.72
75146;BME280;63641;46.526;24.612;2023-01-04T09:02:23;98462.44;;;6.81;79.71
75146;BME280;63641;46.526;24.612;2023-01-04T09:04:51;98469.50;;;6.82;79.71
75146;BME280;63641;46.526;24.612;2023-01-04T09:07:18;98470.53;;;6.81;79.69
75146;BME280;63641;46.526;24.612;2023-01-04T09:09:45;98461.88;;;6.79;79.81
75146;BME280;63641;46.526;24.612;2023-01-04T09:12:12;98457.91;;;6.82;79.86
75146;BME280;63641;46.526;24.612;2023-01-04T09:14:38;98458.50;;;6.84;79.88
75146;BME280;63641;46.526;24.612;2023-01-04T09:17:05;98455.59;;;6.85;79.93
75146;BME280;63641;46.526;24.612;2023-01-04T09:19:32;98445.41;;;6.87;79.81
75146;BME280;63641;46.526;24.612;2023-01-04T09:21:59;98445.66;;;6.86;79.88
75146;BME280;63641;46.526;24.612;2023-01-04T09:24:26;98441.66;;;6.88;80.03
75146;BME280;63641;46.526;24.612;2023-01-04T09:26:53;98430.44;;;6.91;80.15
75146;BME280;63641;46.526;24.612;2023-01-04T09:29:20;98431.03;;;6.93;80.12
75146;BME280;63641;46.526;24.612;2023-01-04T09:31:47;98426.22;;;6.95;79.87
75146;BME280;63641;46.526;24.612;2023-01-04T09:34:14;98417.72;;;6.98;80.09
75146;BME280;63641;46.526;24.612;2023-01-04T09:36:45;98416.78;;;7.05;80.24
75146;BME280;63641;46.526;24.612;2023-01-04T09:39:12;98416.69;;;7.11;80.05
75146;BME280;63641;46.526;24.612;2023-01-04T09:41:57;98408.97;;;7.15;80.09
75146;BME280;63641;46.526;24.612;2023-01-04T09:47:29;98396.22;;;7.22;80.07
75146;BME280;63641;46.526;24.612;2023-01-04T09:50:03;98392.56;;;7.28;80.02
75146;BME280;63641;46.526;24.612;2023-01-04T09:53:05;98388.16;;;7.34;79.83
75146;BME280;63641;46.526;24.612;2023-01-04T09:55:44;98377.94;;;7.36;79.89
75146;BME280;63641;46.526;24.612;2023-01-04T09:58:31;98383.81;;;7.44;79.75
75146;BME280;63641;46.526;24.612;2023-01-04T10:01:04;98378.78;;;7.48;79.77
75146;BME280;63641;46.526;24.612;2023-01-04T10:03:33;98369.38;;;7.50;79.84
75146;BME280;63641;46.526;24.612;2023-01-04T10:06:01;98363.53;;;7.54;79.80
75146;BME280;63641;46.526;24.612;2023-01-04T10:08:29;98375.47;;;7.58;79.65
75146;BME280;63641;46.526;24.612;2023-01-04T10:11:18;98375.00;;;7.61;79.53
75146;BME280;63641;46.526;24.612;2023-01-04T10:20:46;98371.59;;;7.65;79.48
75146;BME280;63641;46.526;24.612;2023-01-04T10:26:00;98376.88;;;7.72;79.47
75146;BME280;63641;46.526;24.612;2023-01-04T10:29:02;98373.09;;;7.73;79.29
75146;BME280;63641;46.526;24.612;2023-01-04T10:32:08;98376.75;;;7.79;79.27
75146;BME280;63641;46.526;24.612;2023-01-04T10:34:29;98375.47;;;7.81;79.08
75146;BME280;63641;46.526;24.612;2023-01-04T10:36:59;98370.41;;;7.85;79.08
75146;BME280;63641;46.526;24.612;2023-01-04T10:39:31;98372.84;;;7.86;78.75
75146;BME280;63641;46.526;24.612;2023-01-04T10:42:31;98373.44;;;7.88;78.49
75146;BME280;63641;46.526;24.612;2023-01-04T10:45:15;98375.06;;;7.89;78.21
75146;BME280;63641;46.526;24.612;2023-01-04T10:48:34;98379.41;;;7.90;78.27
75146;BME280;63641;46.526;24.612;2023-01-04T10:50:59;98370.25;;;7.91;78.19
75146;BME280;63641;46.526;24.612;2023-01-04T10:53:40;98373.06;;;7.96;77.80
75146;BME280;63641;46.526;24.612;2023-01-04T10:56:27;98368.03;;;8.00;77.74
75146;BME280;63641;46.526;24.612;2023-01-04T11:01:44;98370.59;;;8.07;77.28
75146;BME280;63641;46.526;24.612;2023-01-04T11:07:06;98370.09;;;8.10;77.30
75146;BME280;63641;46.526;24.612;2023-01-04T11:09:44;98356.13;;;8.13;77.13
75146;BME280;63641;46.526;24.612;2023-01-04T11:12:14;98351.81;;;8.12;77.00
75146;BME280;63641;46.526;24.612;2023-01-04T11:14:42;98344.53;;;8.12;76.92
75146;BME280;63641;46.526;24.612;2023-01-04T11:17:10;98341.38;;;8.15;76.82
75146;BME280;63641;46.526;24.612;2023-01-04T11:19:38;98338.19;;;8.18;76.70
75146;BME280;63641;46.526;24.612;2023-01-04T11:24:36;98337.06;;;8.31;76.22
75146;BME280;63641;46.526;24.612;2023-01-04T11:27:13;98338.84;;;8.37;76.25
75146;BME280;63641;46.526;24.612;2023-01-04T11:29:54;98329.44;;;8.40;76.00
75146;BME280;63641;46.526;24.612;2023-01-04T11:35:07;98337.16;;;8.48;75.68
75146;BME280;63641;46.526;24.612;2023-01-04T11:37:37;98335.59;;;8.52;75.54
75146;BME280;63641;46.526;24.612;2023-01-04T11:40:30;98327.25;;;8.54;75.42
75146;BME280;63641;46.526;24.612;2023-01-04T11:43:11;98326.53;;;8.58;75.24
75146;BME280;63641;46.526;24.612;2023-01-04T11:48:47;98323.59;;;8.60;75.03
75146;BME280;63641;46.526;24.612;2023-01-04T11:56:32;98324.88;;;8.57;75.05
75146;BME280;63641;46.526;24.612;2023-01-04T11:59:09;98331.34;;;8.56;75.19
75146;BME280;63641;46.526;24.612;2023-01-04T12:01:43;98322.44;;;8.56;75.16
75146;BME280;63641;46.526;24.612;2023-01-04T12:04:23;98325.69;;;8.58;75.27
75146;BME280;63641;46.526;24.612;2023-01-04T12:06:52;98329.25;;;8.58;75.17
75146;BME280;63641;46.526;24.612;2023-01-04T12:09:21;98323.59;;;8.60;75.30
75146;BME280;63641;46.526;24.612;2023-01-04T12:11:54;98317.13;;;8.61;75.19
75146;BME280;63641;46.526;24.612;2023-01-04T12:14:24;98316.31;;;8.60;75.20
75146;BME280;63641;46.526;24.612;2023-01-04T12:17:02;98315.50;;;8.60;75.03
75146;BME280;63641;46.526;24.612;2023-01-04T12:19:31;98321.47;;;8.62;75.19
75146;BME280;63641;46.526;24.612;2023-01-04T12:22:00;98325.00;;;8.62;75.07
75146;BME280;63641;46.526;24.612;2023-01-04T12:24:30;98320.97;;;8.65;75.04
75146;BME280;63641;46.526;24.612;2023-01-04T12:26:58;98306.19;;;8.67;74.84
75146;BME280;63641;46.526;24.612;2023-01-04T12:34:41;98305.13;;;8.85;74.55
75146;BME280;63641;46.526;24.612;2023-01-04T12:37:09;98304.63;;;8.88;74.26
75146;BME280;63641;46.526;24.612;2023-01-04T12:39:42;98302.81;;;8.94;74.08
75146;BME280;63641;46.526;24.612;2023-01-04T12:42:17;98296.59;;;8.93;73.93
75146;BME280;63641;46.526;24.612;2023-01-04T12:50:10;98298.47;;;9.10;73.33
75146;BME280;63641;46.526;24.612;2023-01-04T12:57:58;98319.25;;;9.09;73.10
75146;BME280;63641;46.526;24.612;2023-01-04T13:05:58;98310.91;;;9.11;72.55
75146;BME280;63641;46.526;24.612;2023-01-04T13:08:27;98302.75;;;9.06;72.42
75146;BME280;63641;46.526;24.612;2023-01-04T13:11:00;98314.91;;;9.08;72.30
75146;BME280;63641;46.526;24.612;2023-01-04T13:21:25;98303.88;;;9.10;72.18
75146;BME280;63641;46.526;24.612;2023-01-04T13:23:55;98294.94;;;9.09;71.95
75146;BME280;63641;46.526;24.612;2023-01-04T13:34:17;98278.56;;;9.16;71.49
75146;BME280;63641;46.526;24.612;2023-01-04T13:36:52;98283.47;;;9.19;71.25
75146;BME280;63641;46.526;24.612;2023-01-04T13:39:20;98281.59;;;9.19;71.27
75146;BME280;63641;46.526;24.612;2023-01-04T13:41:48;98275.63;;;9.17;71.20
75146;BME280;63641;46.526;24.612;2023-01-04T13:44:29;98277.25;;;9.18;71.41
75146;BME280;63641;46.526;24.612;2023-01-04T13:47:22;98280.22;;;9.17;71.25
75146;BME280;63641;46.526;24.612;2023-01-04T13:49:49;98290.44;;;9.15;71.30
75146;BME280;63641;46.526;24.612;2023-01-04T13:55:30;98283.66;;;9.12;71.45
75146;BME280;63641;46.526;24.612;2023-01-04T13:57:59;98283.09;;;9.10;71.42
75146;BME280;63641;46.526;24.612;2023-01-04T14:00:47;98283.31;;;9.09;71.27
75146;BME280;63641;46.526;24.612;2023-01-04T14:03:29;98285.69;;;9.05;71.25
75146;BME280;63641;46.526;24.612;2023-01-04T14:06:10;98281.88;;;9.01;71.18
75146;BME280;63641;46.526;24.612;2023-01-04T14:09:03;98282.63;;;8.97;71.20
75146;BME280;63641;46.526;24.612;2023-01-04T14:17:17;98281.72;;;8.74;71.55
75146;BME280;63641;46.526;24.612;2023-01-04T14:30:52;98293.25;;;8.24;71.95
75146;BME280;63641;46.526;24.612;2023-01-04T14:41:23;98295.78;;;7.85;71.59
75146;BME280;63641;46.526;24.612;2023-01-04T14:43:58;98296.63;;;7.74;71.47
75146;BME280;63641;46.526;24.612;2023-01-04T14:46:31;98291.03;;;7.64;71.53
75146;BME280;63641;46.526;24.612;2023-01-04T14:48:58;98290.81;;;7.54;71.84
75146;BME280;63641;46.526;24.612;2023-01-04T14:51:35;98289.31;;;7.46;71.84
75146;BME280;63641;46.526;24.612;2023-01-04T14:54:04;98288.06;;;7.37;71.95
75146;BME280;63641;46.526;24.612;2023-01-04T14:56:32;98291.69;;;7.31;71.89
75146;BME280;63641;46.526;24.612;2023-01-04T14:58:59;98287.03;;;7.26;71.96
75146;BME280;63641;46.526;24.612;2023-01-04T15:01:26;98292.75;;;7.18;72.10
75146;BME280;63641;46.526;24.612;2023-01-04T15:03:53;98296.41;;;7.12;72.26
75146;BME280;63641;46.526;24.612;2023-01-04T15:06:20;98284.13;;;7.04;72.35
75146;BME280;63641;46.526;24.612;2023-01-04T15:08:47;98285.28;;;6.96;72.45
75146;BME280;63641;46.526;24.612;2023-01-04T15:11:14;98281.91;;;6.89;72.36
75146;BME280;63641;46.526;24.612;2023-01-04T15:13:41;98287.13;;;6.84;72.41
75146;BME280;63641;46.526;24.612;2023-01-04T15:16:11;98291.59;;;6.78;72.49
75146;BME280;63641;46.526;24.612;2023-01-04T15:18:39;98289.00;;;6.72;72.53
75146;BME280;63641;46.526;24.612;2023-01-04T15:21:06;98291.34;;;6.68;72.61
75146;BME280;63641;46.526;24.612;2023-01-04T15:23:33;98288.53;;;6.63;72.69
75146;BME280;63641;46.526;24.612;2023-01-04T15:26:06;98283.63;;;6.60;72.80
75146;BME280;63641;46.526;24.612;2023-01-04T15:28:34;98278.25;;;6.60;72.76
75146;BME280;63641;46.526;24.612;2023-01-04T15:31:08;98278.81;;;6.50;72.59
75146;BME280;63641;46.526;24.612;2023-01-04T15:33:36;98285.94;;;6.45;72.65
75146;BME280;63641;46.526;24.612;2023-01-04T15:36:08;98285.22;;;6.38;72.94
75146;BME280;63641;46.526;24.612;2023-01-04T15:38:36;98287.56;;;6.34;73.08
75146;BME280;63641;46.526;24.612;2023-01-04T15:41:06;98284.50;;;6.31;73.19